METAR Reports From Nearby Airports

 

KLUD - Decatur, Texas, USA
Distance from Wildwood: WsPdWs 5mi, 8km
Aktualizacja: Aug 21, 2019 5:55pm
Bezchmurnie
Bezchmurnie
 Wiatr z PdWs
Wiatr: PdWs 9 mph , 15 km/h
Temperatura: 97°F , 36°C
Punkt Rosy: 63°F , 17°C
Wilgotność: 32%
Ciśnienie: 29.91 inHg , 1012.9 hPa
Clouds: Bezchmurnie
Visibility: 10 miles , 16 km
2019/08/21 22:55 KLUD 212255Z AUTO 14008KT 10SM CLR 36/17 A2991 RMK AO2 T03630174
KXBP - Bridgeport, Texas, USA
Distance from Wildwood: ZdPdZa 11mi, 18km
Aktualizacja: Aug 21, 2019 5:55pm
Haze, Bezchmurnie
Haze, Bezchmurnie
 Wiatr z PdWs
Wiatr: PdWs 10 mph , 17 km/h
Temperatura: 97°F , 36°C
Punkt Rosy: 63°F , 17°C
Wilgotność: 32%
Ciśnienie: 29.91 inHg , 1012.9 hPa
Podsumowanie: Haze
Clouds: Bezchmurnie
Visibility: 3 miles , 5 km
2019/08/21 22:55 KXBP 212255Z AUTO 13009KT 3SM HZ CLR 36/17 A2991 RMK AO2 T03630172
 
K0F2 - Bowie, Texas, USA
Distance from Wildwood: PnPnZd 24mi, 39km
Aktualizacja: Aug 21, 2019 5:55pm
Partly Cloudy
Partly Cloudy
 Wiatr z PdWs
Wiatr: PdWs 9 mph , 15 km/h
Temperatura: 99°F , 37°C
Punkt Rosy: 66°F , 19°C
Wilgotność: 35%
Ciśnienie: 29.90 inHg , 1012.5 hPa
Clouds: Partly Cloudy
Visibility: 10 miles , 16 km
Cloud details: Partly Cloudy 7500 ft
2019/08/21 22:55 K0F2 212255Z AUTO 14008KT 110V170 10SM SCT075 37/19 A2990 RMK AO2 T03650190
KDTO - Denton, Texas, USA
Distance from Wildwood: Ws 27mi, 44km
Aktualizacja: Aug 21, 2019 5:53pm
Few Clouds
Few Clouds
 Wiatr z Pd
Wiatr: Pd 16 mph , 26 km/h, Poryw: 21 mph , 33 km/h
Temperatura: 99°F , 37°C
Punkt Rosy: 66°F , 19°C
Wilgotność: 35%
Ciśnienie: 29.89 inHg , 1012.2 hPa
Clouds: Few Clouds
Visibility: 10 miles , 16 km
Cloud details: Few Clouds 7000 ft
2019/08/21 22:53 KDTO 212253Z 17014G18KT 10SM FEW070 37/19 A2989 RMK AO2 SLP112 T03670194
 
KAFW - Ft Worth/Allianc, Texas, USA
Distance from Wildwood: PdWs 29mi, 46km
Aktualizacja: Aug 21, 2019 5:53pm
Partly Cloudy
Partly Cloudy
 Wiatr z Pd
Wiatr: Pd 9 mph , 15 km/h
Temperatura: 99°F , 37°C
Punkt Rosy: 66°F , 19°C
Wilgotność: 35%
Ciśnienie: 29.89 inHg , 1012.2 hPa
Clouds: Partly Cloudy
Visibility: 10 miles , 16 km
Cloud details: Partly Cloudy 9000 ft
2019/08/21 22:53 KAFW 212253Z 18008KT 10SM SCT090 37/19 A2989 RMK AO2 SLP101 CB DSNT NE MOV N MDT CU OHD T03670189
KFTW - Fort Worth, Texas, USA
Distance from Wildwood: PdPdWs 34mi, 55km
Aktualizacja: Aug 21, 2019 5:53pm
Bezchmurnie
Bezchmurnie
 Wiatr z WsPdWs
Wiatr: WsPdWs 13 mph , 20 km/h
Temperatura: 95°F , 35°C
Punkt Rosy: 66°F , 19°C
Wilgotność: 39%
Ciśnienie: 29.88 inHg , 1011.9 hPa
Clouds: Bezchmurnie
Visibility: 10 miles , 16 km
2019/08/21 22:53 KFTW 212253Z 12011KT 10SM CLR 35/19 A2988 RMK AO2 SLP107 T03500189
 
KNFW - Fort Worth Nas, Texas, USA
Distance from Wildwood: PdPdWs 36mi, 58km
Aktualizacja: Aug 21, 2019 5:52pm
Few Clouds
Few Clouds
 Wiatr z PdPdWs
Wiatr: PdPdWs 14 mph , 22 km/h, Poryw: 18 mph , 30 km/h
Temperatura: 99°F , 37°C
Punkt Rosy: 63°F , 17°C
Wilgotność: 31%
Ciśnienie: 29.89 inHg , 1012.2 hPa
Clouds: Few Clouds
Visibility: 10 miles , 16 km
Cloud details: Few Clouds 8000 ft
2019/08/21 22:52 KNFW 212252Z 16012G16KT 10SM FEW080 37/17 A2989 RMK AO2 SLP106 T03720172 VISNO N $
KGLE - Gainesville, Texas, USA
Distance from Wildwood: PnWs 38mi, 61km
Aktualizacja: Aug 21, 2019 5:55pm
Bezchmurnie
Bezchmurnie
 Wiatr z Pd
Wiatr: Pd 8 mph , 13 km/h
Temperatura: 97°F , 36°C
Punkt Rosy: 63°F , 17°C
Wilgotność: 32%
Ciśnienie: 29.92 inHg , 1013.2 hPa
Clouds: Bezchmurnie
Visibility: 10 miles , 16 km
2019/08/21 22:55 KGLE 212255Z AUTO 18007KT 10SM CLR 36/17 A2992 RMK AO2 T03590169 PWINO
 
KMWL - Mineral Wells, Texas, USA
Distance from Wildwood: PdZd 41mi, 65km
Aktualizacja: Aug 21, 2019 5:53pm
Bezchmurnie
Bezchmurnie
 Wiatr z PdWs
Wiatr: PdWs 12 mph , 19 km/h
Temperatura: 99°F , 37°C
Punkt Rosy: 61°F , 16°C
Wilgotność: 29%
Ciśnienie: 29.88 inHg , 1011.9 hPa
Clouds: Bezchmurnie
Visibility: 10 miles , 16 km
2019/08/21 22:53 KMWL 212253Z AUTO 13010KT 10SM CLR 37/16 A2988 RMK AO2 SLP104 T03670161
KDFW - Dallas/Ft Worth, Texas, USA
Distance from Wildwood: WsPdWs 45mi, 73km
Aktualizacja: Aug 21, 2019 5:53pm
Partly Cloudy
Partly Cloudy
 Wiatr z WsPdWs
Wiatr: WsPdWs 10 mph , 17 km/h
Temperatura: 97°F , 36°C
Punkt Rosy: 66°F , 19°C
Wilgotność: 37%
Ciśnienie: 29.88 inHg , 1011.9 hPa
Clouds: Partly Cloudy
Visibility: 10 miles , 16 km
Cloud details: Partly Cloudy 7000 ft
2019/08/21 22:53 KDFW 212253Z 11009KT 10SM SCT070 36/19 A2988 RMK AO2 SLP107 CB DSNT N T03610194